EGCNEGNM

Guest
Details From EGCN - Doncaster Sheffield
To EGNM - Leeds Bradford
Flight Number -
Tags decoded
Created
Modified
Stats Distance 33 nm / 61 km
Max Altitude 0 ft / 0 m
Waypoints 3
Social Downloads 1
Likes 0
Share VATSIM

Download

Looking for another format? Having issues loading an existing format? Contact us
Advertisement - Login to hide

Notes

Requested: EGCN LF004 EGNM

Route

EGCN LF004 EGNM

ID Type Via Altitude Latitude Longitude Leg Dist Tot Dist Heading (true) Name
O EGCN APT - 0 ft / 0 m 53.47465˚ -1.00447˚ - 0 nm - Doncaster Sheffield
LF004 FIX - 0 ft / 0 m 53.81136˚ -1.57816˚ 28 nm 28 nm 315° / 314° -
O EGNM APT - 0 ft / 0 m 53.86603˚ -1.66078˚ 4 nm 33 nm 318° / 318° Leeds Bradford

Altitude Profile

Advertisement - Login to hide

EGCN

Details ICAO EGCN (DSA)
Name Doncaster Sheffield
Region United Kingdom
Timezone Europe/London (UTC+0.0)
Stats Elevation 55 ft / 17 m (AMSL)
Location 53.474649° -1.004474°
Runways 1
Magnetic Variation 0.996° W

METAR

EGCN 171720Z 23008KT 9999 SCT013 BKN018 OVC026 08/08 Q1016

Decode

TAF

TAF EGCN 171100Z 1712/1812 19008KT 9999 BKN015 TEMPO 1712/1718 3000 RADZ BKN004 BECMG 1716/1719 29010KT CAVOK

Decode

Departure Runways

ID Width Length Bearing (true) Bearing (mag) Surface Threshold Offset Overrun Length
02 197 ft / 60 m 8,975 ft / 2,736 m 17.62° 18.62° Asphalt 486 ft / 148 m 13 ft / 4 m
20 197 ft / 60 m 8,975 ft / 2,736 m 197.63° 198.63° Asphalt 0 ft / 0 m 0 ft / 0 m

EGNM

Details ICAO EGNM (LBA)
Name Leeds Bradford
Region United Kingdom
Timezone Europe/London (UTC+0.0)
Stats Elevation 681 ft / 208 m (AMSL)
Location 53.866027° -1.660778°
Runways 1
Magnetic Variation 1.297° W

METAR

EGNM 171720Z 28015G25KT 260V350 9999 FEW008 09/07 Q1014

Decode

TAF

TAF AMD TAF AMD EGNM 171603Z 1716/1812 22010KT 2000 -RADZ BR BKN008 BECMG 1716/1718 30010KT 9999 NSW SCT016 PROB30 1806/1811 6000

Decode

Destination Runways

ID Width Length Bearing (true) Bearing (mag) Surface Threshold Offset Overrun Length
14 151 ft / 46 m 7,377 ft / 2,248 m 137.79° 139.09° Concrete 1,024 ft / 312 m 46 ft / 14 m
32 151 ft / 46 m 7,377 ft / 2,248 m 317.81° 319.11° Concrete 899 ft / 274 m 49 ft / 15 m

Approach Navaids

Runway Type Ident Frequency Range Bearing (true) Bearing (mag) Slope Elevation
14 Localiser ILBF 110.90 MHz 18 nm / 33 km 137.73° 139.02° - 681 ft / 208 m (AMSL)
14 Glidescope ILBF 110.90 MHz 10 nm / 19 km 137.80° 139.09° 3.50° 681 ft / 208 m (AMSL)
14 DME ILBF 110.90 MHz 18 nm / 33 km - - - 681 ft / 208 m (AMSL)
32 Localiser ILF 110.90 MHz 18 nm / 33 km 317.80° 319.09° - 681 ft / 208 m (AMSL)
32 Glidescope ILF 110.90 MHz 10 nm / 19 km 317.80° 319.09° 3.00° 681 ft / 208 m (AMSL)
32 DME ILF 110.90 MHz 18 nm / 33 km - - - 687 ft / 209 m (AMSL)

Popular Alternatives